createdAt,value
2022-07-31T00:00:29.558Z,15.32
2022-07-31T00:02:58.983Z,15.30
2022-07-31T00:05:27.900Z,15.35
2022-07-31T00:07:56.706Z,15.32
2022-07-31T00:10:25.914Z,15.31
2022-07-31T00:12:54.742Z,15.31
2022-07-31T00:15:24.463Z,15.29
2022-07-31T00:17:53.348Z,15.20
2022-07-31T00:20:22.178Z,15.28
2022-07-31T00:22:50.912Z,15.19
2022-07-31T00:25:19.662Z,15.24
2022-07-31T00:27:48.486Z,15.19
2022-07-31T00:30:17.622Z,15.29
2022-07-31T00:32:46.495Z,15.13
2022-07-31T00:35:16.995Z,15.17
2022-07-31T00:37:46.012Z,15.20
2022-07-31T00:40:16.243Z,15.21
2022-07-31T00:42:45.215Z,15.22
2022-07-31T00:45:14.077Z,15.20
2022-07-31T00:47:43.431Z,15.14
2022-07-31T00:50:12.716Z,15.13
2022-07-31T00:52:44.285Z,15.11
2022-07-31T00:55:13.077Z,15.11
2022-07-31T00:57:43.662Z,15.11
2022-07-31T01:00:13.771Z,15.11
2022-07-31T01:02:46.457Z,15.05
2022-07-31T01:05:12.919Z,15.04
2022-07-31T01:07:41.673Z,15.19
2022-07-31T01:10:11.900Z,15.11
2022-07-31T01:12:53.815Z,15.03
2022-07-31T01:15:21.339Z,15.04
2022-07-31T01:17:51.817Z,15.11
2022-07-31T01:20:22.211Z,15.09
2022-07-31T01:23:09.125Z,14.98
2022-07-31T01:25:41.123Z,14.94
2022-07-31T01:28:32.401Z,15.08
2022-07-31T01:31:25.614Z,14.97
2022-07-31T01:33:34.684Z,15.10
2022-07-31T01:36:09.850Z,14.99
2022-07-31T01:38:43.843Z,15.04
2022-07-31T01:41:12.575Z,14.95
2022-07-31T01:43:42.948Z,15.00
2022-07-31T01:46:13.592Z,15.00
2022-07-31T01:48:43.334Z,14.98
2022-07-31T01:51:13.995Z,14.93
2022-07-31T01:53:44.564Z,14.94
2022-07-31T01:56:16.501Z,15.13
2022-07-31T01:58:45.897Z,15.07
2022-07-31T02:01:17.358Z,14.95
2022-07-31T02:03:47.302Z,14.96
2022-07-31T02:06:19.351Z,15.01
2022-07-31T02:08:49.924Z,14.91
2022-07-31T02:11:20.307Z,14.94
2022-07-31T02:13:49.915Z,15.09
2022-07-31T02:16:20.743Z,14.92
2022-07-31T02:18:52.961Z,14.87
2022-07-31T02:21:26.728Z,14.85
2022-07-31T02:23:57.229Z,14.89
2022-07-31T02:26:27.605Z,14.98
2022-07-31T02:28:57.076Z,14.92
2022-07-31T02:31:27.042Z,15.03
2022-07-31T02:33:55.837Z,14.94
2022-07-31T02:36:25.781Z,15.00
2022-07-31T02:38:55.044Z,14.97
2022-07-31T02:41:24.715Z,14.94
2022-07-31T02:43:53.777Z,15.09
2022-07-31T02:46:23.371Z,14.90
2022-07-31T02:48:52.839Z,14.88
2022-07-31T02:51:24.040Z,14.90
2022-07-31T02:53:53.202Z,15.01
2022-07-31T02:56:23.537Z,14.90
2022-07-31T02:58:54.019Z,14.97
2022-07-31T03:01:26.012Z,15.05
2022-07-31T03:03:55.224Z,14.91
2022-07-31T03:06:23.944Z,14.99
2022-07-31T03:08:52.900Z,15.05
2022-07-31T03:11:23.431Z,14.97
2022-07-31T03:13:53.809Z,14.85
2022-07-31T03:16:23.880Z,14.88
2022-07-31T03:18:54.095Z,14.86
2022-07-31T03:21:24.641Z,14.79
2022-07-31T03:23:53.622Z,14.83
2022-07-31T03:26:23.705Z,14.82
2022-07-31T03:28:52.904Z,14.81
2022-07-31T03:31:22.950Z,14.80
2022-07-31T03:33:51.712Z,14.89
2022-07-31T03:36:20.600Z,14.86
2022-07-31T03:38:50.718Z,14.79
2022-07-31T03:41:21.389Z,14.80
2022-07-31T03:43:50.824Z,14.80
2022-07-31T03:46:22.963Z,14.82
2022-07-31T03:48:52.775Z,14.86
2022-07-31T03:51:23.405Z,14.70
2022-07-31T03:53:52.202Z,14.78
2022-07-31T03:56:23.937Z,14.85
2022-07-31T03:58:52.944Z,14.76
2022-07-31T04:01:22.901Z,14.81
2022-07-31T04:04:00.526Z,14.78
2022-07-31T04:06:37.539Z,14.72
2022-07-31T04:09:15.425Z,14.82
2022-07-31T04:11:36.658Z,14.76
2022-07-31T04:14:07.981Z,14.75
2022-07-31T04:16:36.962Z,14.74
2022-07-31T04:19:05.691Z,14.76
2022-07-31T04:21:34.586Z,14.76
2022-07-31T04:24:03.306Z,14.79
2022-07-31T04:26:51.514Z,14.80
2022-07-31T04:29:20.328Z,14.84
2022-07-31T04:31:49.987Z,14.91
2022-07-31T04:34:20.429Z,14.95
2022-07-31T04:36:49.596Z,14.81
2022-07-31T04:39:18.484Z,14.85
2022-07-31T04:41:47.472Z,14.84
2022-07-31T04:44:17.022Z,15.00
2022-07-31T04:47:06.160Z,14.85
2022-07-31T04:49:36.871Z,14.96
2022-07-31T04:52:06.709Z,14.94
2022-07-31T04:54:35.885Z,14.93
2022-07-31T04:57:05.404Z,14.90
2022-07-31T04:59:59.041Z,15.00
2022-07-31T05:02:07.339Z,15.07
2022-07-31T05:04:36.708Z,14.98
2022-07-31T05:07:05.699Z,14.98
2022-07-31T05:09:36.662Z,14.99
2022-07-31T05:12:08.212Z,14.91
2022-07-31T05:14:37.013Z,15.08
2022-07-31T05:17:05.938Z,15.06
2022-07-31T05:19:36.512Z,15.07
2022-07-31T05:22:25.402Z,15.15
2022-07-31T05:24:55.995Z,15.04
2022-07-31T05:27:25.411Z,15.11
2022-07-31T05:29:57.128Z,15.06
2022-07-31T05:32:26.575Z,15.07
2022-07-31T05:34:55.365Z,15.20
2022-07-31T05:37:26.259Z,15.17
2022-07-31T05:39:55.155Z,15.21
2022-07-31T05:42:41.734Z,15.23
2022-07-31T05:45:12.225Z,15.28
2022-07-31T05:47:41.386Z,15.27
2022-07-31T05:50:11.503Z,15.28
2022-07-31T05:52:40.336Z,15.29
2022-07-31T05:55:27.202Z,15.41
2022-07-31T05:57:57.621Z,15.41
2022-07-31T06:00:28.323Z,15.43
2022-07-31T06:02:59.998Z,15.44
2022-07-31T06:05:46.861Z,15.43
2022-07-31T06:08:15.730Z,15.52
2022-07-31T06:10:46.298Z,15.47
2022-07-31T06:13:15.270Z,15.48
2022-07-31T06:15:49.439Z,15.63
2022-07-31T06:18:15.806Z,15.66
2022-07-31T06:20:44.522Z,15.70
2022-07-31T06:23:19.955Z,15.80
2022-07-31T06:25:44.413Z,15.79
2022-07-31T06:28:15.004Z,15.77
2022-07-31T06:30:46.071Z,15.80
2022-07-31T06:33:20.208Z,15.86
2022-07-31T06:35:46.686Z,15.87
2022-07-31T06:38:30.619Z,15.94
2022-07-31T06:41:03.885Z,15.92
2022-07-31T06:43:38.542Z,15.97
2022-07-31T06:46:10.464Z,16.04
2022-07-31T06:48:57.762Z,16.04
2022-07-31T06:51:30.784Z,16.20
2022-07-31T06:53:57.399Z,16.26
2022-07-31T06:56:26.342Z,16.27
2022-07-31T06:58:55.395Z,16.34
2022-07-31T07:01:24.813Z,16.41
2022-07-31T07:03:53.763Z,16.54
2022-07-31T07:06:23.749Z,16.56
2022-07-31T07:08:53.326Z,16.75
2022-07-31T07:11:22.665Z,16.79
2022-07-31T07:13:51.534Z,16.87
2022-07-31T07:16:20.441Z,16.99
2022-07-31T07:18:49.333Z,16.98
2022-07-31T07:21:19.410Z,17.26
2022-07-31T07:23:48.320Z,17.39
2022-07-31T07:26:21.888Z,17.64
2022-07-31T07:28:50.999Z,17.63
2022-07-31T07:31:19.828Z,17.65
2022-07-31T07:33:48.932Z,17.74
2022-07-31T07:36:22.909Z,17.94
2022-07-31T07:38:50.090Z,18.13
2022-07-31T07:41:18.928Z,18.39
2022-07-31T07:43:51.708Z,18.61
2022-07-31T07:46:18.687Z,18.72
2022-07-31T07:48:51.105Z,18.63
2022-07-31T07:51:22.451Z,18.53
2022-07-31T07:53:55.812Z,18.57
2022-07-31T07:56:33.279Z,18.70
2022-07-31T07:59:06.465Z,18.81
2022-07-31T08:01:44.299Z,19.01
2022-07-31T08:04:17.399Z,19.05
2022-07-31T08:06:47.175Z,19.07
2022-07-31T08:09:17.436Z,19.18
2022-07-31T08:12:06.338Z,19.06
2022-07-31T08:14:39.893Z,18.71
2022-07-31T08:17:26.718Z,18.88
2022-07-31T08:19:55.999Z,18.78
2022-07-31T08:22:25.280Z,18.69
2022-07-31T08:24:53.993Z,18.63
2022-07-31T08:27:39.459Z,18.58
2022-07-31T08:29:56.938Z,18.96
2022-07-31T08:32:28.962Z,19.32
2022-07-31T08:35:15.849Z,19.55
2022-07-31T08:37:59.369Z,19.38
2022-07-31T08:40:15.151Z,19.51
2022-07-31T08:42:47.167Z,19.76
2022-07-31T08:45:16.076Z,20.15
2022-07-31T08:47:48.252Z,20.50
2022-07-31T08:50:22.911Z,20.41
2022-07-31T08:52:54.686Z,20.27
2022-07-31T08:55:56.121Z,20.47
2022-07-31T08:57:57.626Z,20.75
2022-07-31T09:00:28.057Z,21.10
2022-07-31T09:02:57.026Z,21.47
2022-07-31T09:05:27.855Z,21.46
2022-07-31T09:07:58.456Z,21.66
2022-07-31T09:10:28.575Z,21.68
2022-07-31T09:12:57.937Z,21.92
2022-07-31T09:15:29.651Z,22.10
2022-07-31T09:18:00.074Z,22.23
2022-07-31T09:20:29.974Z,22.11
2022-07-31T09:23:07.914Z,22.02
2022-07-31T09:25:38.549Z,21.89
2022-07-31T09:28:08.175Z,21.97
2022-07-31T09:30:56.195Z,22.08
2022-07-31T09:33:16.725Z,22.11
2022-07-31T09:35:56.327Z,22.32
2022-07-31T09:38:27.890Z,22.38
2022-07-31T09:41:26.850Z,22.42
2022-07-31T09:44:09.601Z,22.28
2022-07-31T09:46:48.210Z,21.95
2022-07-31T09:49:17.139Z,22.09
2022-07-31T09:51:50.184Z,22.01
2022-07-31T09:54:21.950Z,21.69
2022-07-31T09:56:55.122Z,21.56
2022-07-31T09:59:26.023Z,21.41
2022-07-31T10:01:55.678Z,21.42
2022-07-31T10:04:25.122Z,21.70
2022-07-31T10:06:55.310Z,22.26
2022-07-31T10:09:25.307Z,22.70
2022-07-31T10:11:56.651Z,23.14
2022-07-31T10:14:28.391Z,23.38
2022-07-31T10:16:58.161Z,23.44
2022-07-31T10:19:36.371Z,23.84
2022-07-31T10:22:07.576Z,24.28
2022-07-31T10:24:39.178Z,23.96
2022-07-31T10:27:10.529Z,24.32
2022-07-31T10:29:41.054Z,24.20
2022-07-31T10:32:10.788Z,24.21
2022-07-31T10:34:41.859Z,24.72
2022-07-31T10:37:25.634Z,24.18
2022-07-31T10:40:14.406Z,23.76
2022-07-31T10:49:48.132Z,24.23
2022-07-31T10:52:28.525Z,24.06
2022-07-31T10:55:00.906Z,23.99
2022-07-31T10:57:57.212Z,24.08
2022-07-31T11:00:23.293Z,24.63
2022-07-31T11:03:01.527Z,25.07
2022-07-31T11:05:32.359Z,24.97
2022-07-31T11:08:08.453Z,24.74
2022-07-31T11:10:40.532Z,23.88
2022-07-31T11:13:12.176Z,24.56
2022-07-31T11:15:50.090Z,25.01
2022-07-31T11:18:37.177Z,25.14
2022-07-31T11:21:28.806Z,25.02
2022-07-31T11:23:38.413Z,25.00
2022-07-31T11:26:08.331Z,25.32
2022-07-31T11:28:37.040Z,25.51
2022-07-31T11:31:07.029Z,25.84
2022-07-31T11:33:42.249Z,25.89
2022-07-31T11:36:08.877Z,26.09
2022-07-31T11:38:39.173Z,25.82
2022-07-31T11:41:08.998Z,25.97
2022-07-31T11:43:39.547Z,26.03
2022-07-31T11:46:08.287Z,26.29
2022-07-31T11:48:43.506Z,26.31
2022-07-31T11:51:09.018Z,26.47
2022-07-31T11:53:42.165Z,26.28
2022-07-31T11:56:11.149Z,26.28
2022-07-31T11:58:41.325Z,25.97
2022-07-31T12:01:10.137Z,25.56
2022-07-31T12:03:39.986Z,26.20
2022-07-31T12:06:09.940Z,26.65
2022-07-31T12:08:39.291Z,26.39
2022-07-31T12:11:09.530Z,26.47
2022-07-31T12:13:40.150Z,26.41
2022-07-31T12:16:10.369Z,26.33
2022-07-31T12:18:49.562Z,26.54
2022-07-31T12:21:20.142Z,26.10
2022-07-31T12:23:51.483Z,25.86
2022-07-31T12:26:24.834Z,25.73
2022-07-31T12:29:00.281Z,25.89
2022-07-31T12:31:29.591Z,26.47
2022-07-31T12:33:58.273Z,26.99
2022-07-31T12:36:27.407Z,27.08
2022-07-31T12:39:00.662Z,27.08
2022-07-31T12:41:30.005Z,26.71
2022-07-31T12:44:13.176Z,26.60
2022-07-31T12:46:42.967Z,26.17
2022-07-31T12:49:11.744Z,26.30
2022-07-31T12:51:46.016Z,26.52
2022-07-31T12:54:11.409Z,26.84
2022-07-31T12:56:42.157Z,26.88
2022-07-31T12:59:10.928Z,27.20
2022-07-31T13:01:39.840Z,26.84
2022-07-31T13:04:19.050Z,27.01
2022-07-31T13:06:40.052Z,27.04
2022-07-31T13:09:09.961Z,26.47
2022-07-31T13:11:45.649Z,26.52
2022-07-31T13:14:09.095Z,26.73
2022-07-31T13:16:37.903Z,26.62
2022-07-31T13:19:07.901Z,26.61
2022-07-31T13:21:47.978Z,26.55
2022-07-31T13:24:09.106Z,26.65
2022-07-31T13:26:37.953Z,26.82
2022-07-31T13:29:06.831Z,26.87
2022-07-31T13:31:35.523Z,26.72
2022-07-31T13:34:04.438Z,26.68
2022-07-31T13:36:38.651Z,26.92
2022-07-31T13:39:03.633Z,26.86
2022-07-31T13:41:34.221Z,26.96
2022-07-31T13:44:03.694Z,26.96
2022-07-31T13:46:33.350Z,27.00
2022-07-31T13:49:03.024Z,26.98
2022-07-31T13:51:31.823Z,27.07
2022-07-31T13:54:00.609Z,26.98
2022-07-31T13:56:39.279Z,27.07
2022-07-31T13:58:59.997Z,26.87
2022-07-31T14:02:04.017Z,26.97
2022-07-31T14:03:59.256Z,27.13
2022-07-31T14:06:29.772Z,27.36
2022-07-31T14:08:59.327Z,27.51
2022-07-31T14:11:28.187Z,27.33
2022-07-31T14:13:56.938Z,27.27
2022-07-31T14:16:26.534Z,27.33
2022-07-31T14:18:55.372Z,27.35
2022-07-31T14:21:24.361Z,27.39
2022-07-31T14:23:53.151Z,27.27
2022-07-31T14:26:22.070Z,27.46
2022-07-31T14:28:50.933Z,27.40
2022-07-31T14:31:19.689Z,27.44
2022-07-31T14:33:48.403Z,27.37
2022-07-31T14:36:17.198Z,27.37
2022-07-31T14:38:45.988Z,27.42
2022-07-31T14:41:14.650Z,27.40
2022-07-31T14:43:43.441Z,27.36
2022-07-31T14:46:12.160Z,27.29
2022-07-31T14:48:40.940Z,27.24
2022-07-31T14:51:09.638Z,27.24
2022-07-31T14:53:38.359Z,27.31
2022-07-31T14:56:07.141Z,27.25
2022-07-31T14:58:57.666Z,27.31
2022-07-31T15:01:06.288Z,27.36
2022-07-31T15:03:35.086Z,27.11
2022-07-31T15:06:44.447Z,27.33
2022-07-31T15:08:37.164Z,27.59
2022-07-31T15:11:05.961Z,27.25
2022-07-31T15:13:38.750Z,27.25
2022-07-31T15:16:05.754Z,27.21
2022-07-31T15:18:34.464Z,26.91
2022-07-31T15:21:03.196Z,26.85
2022-07-31T15:23:35.737Z,27.40
2022-07-31T15:26:02.319Z,27.49
2022-07-31T15:28:31.195Z,27.41
2022-07-31T15:31:01.346Z,27.26
2022-07-31T15:33:30.217Z,27.05
2022-07-31T15:35:58.940Z,27.06
2022-07-31T15:38:29.111Z,27.05
2022-07-31T15:40:58.315Z,27.10
2022-07-31T15:43:27.036Z,27.03
2022-07-31T15:45:55.749Z,27.06
2022-07-31T15:48:24.608Z,27.03
2022-07-31T15:50:53.325Z,26.72
2022-07-31T15:53:26.233Z,26.82
2022-07-31T15:55:53.863Z,26.58
2022-07-31T15:58:22.808Z,26.53
2022-07-31T16:00:51.744Z,26.55
2022-07-31T16:03:20.861Z,26.63
2022-07-31T16:05:55.936Z,26.52
2022-07-31T16:08:29.169Z,26.22
2022-07-31T16:10:54.633Z,26.22
2022-07-31T16:13:22.605Z,26.28
2022-07-31T16:15:52.423Z,26.24
2022-07-31T16:18:21.368Z,26.27
2022-07-31T16:20:50.204Z,26.29
2022-07-31T16:23:19.092Z,26.10
2022-07-31T16:25:47.945Z,25.93
2022-07-31T16:28:16.871Z,26.10
2022-07-31T16:30:47.289Z,26.11
2022-07-31T16:33:16.329Z,26.14
2022-07-31T16:35:45.356Z,25.89
2022-07-31T16:38:14.217Z,26.03
2022-07-31T16:40:43.349Z,26.13
2022-07-31T16:43:48.735Z,25.96
2022-07-31T16:45:42.600Z,25.99
2022-07-31T16:48:11.399Z,25.97
2022-07-31T16:50:40.208Z,25.90
2022-07-31T16:53:09.156Z,25.90
2022-07-31T16:55:51.784Z,25.95
2022-07-31T16:58:11.815Z,25.86
2022-07-31T17:00:40.916Z,25.75
2022-07-31T17:03:59.412Z,25.64
2022-07-31T17:05:40.176Z,25.79
2022-07-31T17:08:09.143Z,25.85
2022-07-31T17:10:38.015Z,25.77
2022-07-31T17:13:06.853Z,25.73
2022-07-31T17:15:35.644Z,25.65
2022-07-31T17:18:04.492Z,25.47
2022-07-31T17:20:33.270Z,25.79
2022-07-31T17:23:03.920Z,25.53
2022-07-31T17:25:34.329Z,25.47
2022-07-31T17:28:03.111Z,25.53
2022-07-31T17:30:32.738Z,25.51
2022-07-31T17:33:01.448Z,25.56
2022-07-31T17:35:30.526Z,25.52
2022-07-31T17:37:59.244Z,25.38
2022-07-31T17:40:42.924Z,25.26
2022-07-31T17:42:58.414Z,25.27
2022-07-31T17:45:37.049Z,25.17
2022-07-31T17:48:03.338Z,25.09
2022-07-31T17:50:29.434Z,25.04
2022-07-31T17:52:58.123Z,24.81
2022-07-31T17:55:26.971Z,24.58
2022-07-31T17:57:55.687Z,24.39
2022-07-31T18:00:27.341Z,24.11
2022-07-31T18:02:56.099Z,23.89
2022-07-31T18:05:24.933Z,23.66
2022-07-31T18:07:53.726Z,23.32
2022-07-31T18:10:32.663Z,23.13
2022-07-31T18:12:57.311Z,22.90
2022-07-31T18:15:34.872Z,22.90
2022-07-31T18:17:54.388Z,22.57
2022-07-31T18:20:27.146Z,22.24
2022-07-31T18:22:55.121Z,21.92
2022-07-31T18:25:23.843Z,21.78
2022-07-31T18:27:54.273Z,21.60
2022-07-31T18:30:23.020Z,21.46
2022-07-31T18:32:53.355Z,21.20
2022-07-31T18:35:22.246Z,21.01
2022-07-31T18:37:50.967Z,20.74
2022-07-31T18:40:19.766Z,20.66
2022-07-31T18:42:48.498Z,20.54
2022-07-31T18:45:17.253Z,20.51
2022-07-31T18:47:45.974Z,20.25
2022-07-31T18:51:00.115Z,20.17
2022-07-31T18:52:45.401Z,20.02
2022-07-31T18:55:14.396Z,19.85
2022-07-31T18:57:44.091Z,19.82
2022-07-31T19:00:14.019Z,19.73
2022-07-31T19:02:43.259Z,19.66
2022-07-31T19:05:13.667Z,19.57
2022-07-31T19:07:42.327Z,19.24
2022-07-31T19:10:11.117Z,19.31
2022-07-31T19:12:41.590Z,19.17
2022-07-31T19:15:10.443Z,19.00
2022-07-31T19:17:44.396Z,18.85
2022-07-31T19:20:14.923Z,18.79
2022-07-31T19:22:43.871Z,18.73
2022-07-31T19:25:12.601Z,18.64
2022-07-31T19:27:48.051Z,18.54
2022-07-31T19:30:13.772Z,18.51
2022-07-31T19:32:42.848Z,18.39
2022-07-31T19:35:11.628Z,18.40
2022-07-31T19:37:40.361Z,18.40
2022-07-31T19:40:09.403Z,18.27
2022-07-31T19:42:39.364Z,18.09
2022-07-31T19:45:08.298Z,17.93
2022-07-31T19:47:37.059Z,17.82
2022-07-31T19:50:07.434Z,17.70
2022-07-31T19:52:36.173Z,17.65
2022-07-31T19:55:05.564Z,17.58
2022-07-31T19:57:34.293Z,17.55
2022-07-31T20:00:03.138Z,17.55
2022-07-31T20:02:33.171Z,17.39
2022-07-31T20:05:01.898Z,17.19
2022-07-31T20:07:32.989Z,17.03
2022-07-31T20:10:02.092Z,17.07
2022-07-31T20:12:30.840Z,16.83
2022-07-31T20:14:59.908Z,16.86
2022-07-31T20:17:29.363Z,16.98
2022-07-31T20:20:12.621Z,16.88
2022-07-31T20:22:28.776Z,16.83
2022-07-31T20:24:57.625Z,16.80
2022-07-31T20:27:26.625Z,16.47
2022-07-31T20:29:55.499Z,16.58
2022-07-31T20:32:24.220Z,16.50
2022-07-31T20:34:53.509Z,16.57
2022-07-31T20:37:22.268Z,16.64
2022-07-31T20:39:51.014Z,16.54
2022-07-31T20:42:19.832Z,16.52
2022-07-31T20:44:49.646Z,16.44
2022-07-31T20:47:21.583Z,16.44
2022-07-31T20:49:49.008Z,16.37
2022-07-31T20:52:17.761Z,16.38
2022-07-31T20:54:46.497Z,16.38
2022-07-31T20:57:15.826Z,16.27
2022-07-31T20:59:44.702Z,16.20
2022-07-31T21:02:13.596Z,16.06
2022-07-31T21:04:43.165Z,15.95
2022-07-31T21:07:11.955Z,15.95
2022-07-31T21:09:41.590Z,15.89
2022-07-31T21:12:10.287Z,15.86
2022-07-31T21:14:41.645Z,15.68
2022-07-31T21:17:10.730Z,15.71
2022-07-31T21:19:41.467Z,15.79
2022-07-31T21:22:17.188Z,15.64
2022-07-31T21:24:46.062Z,15.56
2022-07-31T21:27:16.559Z,15.50
2022-07-31T21:29:45.490Z,15.46
2022-07-31T21:32:14.734Z,15.47
2022-07-31T21:34:43.659Z,15.43
2022-07-31T21:37:16.046Z,15.43
2022-07-31T21:39:44.588Z,15.37
2022-07-31T21:42:13.700Z,15.31
2022-07-31T21:44:44.382Z,15.22
2022-07-31T21:47:16.962Z,15.23
2022-07-31T21:49:48.081Z,15.16
2022-07-31T21:52:16.787Z,15.12
2022-07-31T21:54:45.562Z,15.02
2022-07-31T21:57:14.313Z,15.01
2022-07-31T21:59:43.024Z,15.01
2022-07-31T22:02:11.880Z,14.96
2022-07-31T22:04:42.527Z,14.97
2022-07-31T22:07:29.417Z,14.95
2022-07-31T22:09:58.831Z,14.88
2022-07-31T22:12:27.610Z,14.87
2022-07-31T22:14:56.299Z,14.80
2022-07-31T22:17:25.141Z,14.76
2022-07-31T22:19:58.481Z,14.65
2022-07-31T22:22:27.825Z,14.67
2022-07-31T22:24:57.144Z,14.63
2022-07-31T22:27:44.096Z,14.60
2022-07-31T22:30:13.632Z,14.57
2022-07-31T22:32:42.403Z,14.61
2022-07-31T22:35:13.859Z,14.61
2022-07-31T22:37:43.165Z,14.58
2022-07-31T22:40:12.234Z,14.57
2022-07-31T22:42:41.031Z,14.52
2022-07-31T22:45:12.414Z,14.51
2022-07-31T22:47:43.244Z,14.56
2022-07-31T22:50:14.876Z,14.52
2022-07-31T22:52:44.280Z,14.45
2022-07-31T22:55:13.880Z,14.40
2022-07-31T22:57:44.514Z,14.32
2022-07-31T23:00:14.749Z,14.25
2022-07-31T23:02:44.642Z,14.23
2022-07-31T23:05:13.532Z,14.20
2022-07-31T23:07:42.235Z,14.17
2022-07-31T23:10:12.718Z,14.13
2022-07-31T23:12:42.468Z,14.13
2022-07-31T23:15:11.342Z,14.02
2022-07-31T23:17:40.107Z,13.95
2022-07-31T23:20:09.324Z,13.92
2022-07-31T23:22:38.044Z,13.90
2022-07-31T23:25:07.360Z,13.90
2022-07-31T23:27:36.213Z,13.89
2022-07-31T23:30:05.295Z,13.86
2022-07-31T23:32:34.175Z,13.80
2022-07-31T23:35:02.942Z,13.79
2022-07-31T23:37:31.794Z,13.74
2022-07-31T23:40:00.638Z,13.74
2022-07-31T23:42:38.081Z,13.69
2022-07-31T23:45:08.566Z,13.64
2022-07-31T23:47:44.431Z,13.66
2022-07-31T23:50:10.035Z,13.61
2022-07-31T23:52:38.858Z,13.61
2022-07-31T23:55:07.955Z,13.61
2022-07-31T23:57:36.751Z,13.61
